Flight Track Log - Related Links

Times and Time Zones

All times are in EDT time to prevent confusion due to time zone crossing. See the CDG4990 flight status page for this flight to view local times or setup timezone preferences in your user account.

Time Position Orientation Groundspeed Altitude Reporting Facility
EDT Latitude Longitude Course Direction KTS MPH feet Rate Location/Type
Wed 09:35:00 AM 22.4401 112.7835 308° West  Level Estimated
Wed 09:36:00 AM 22.4941 112.7091 308° West  Level Estimated
Wed 09:37:00 AM 22.5481 112.6347 308° West  Level Estimated
Wed 09:38:00 AM 22.6020 112.5602 308° West  Level Estimated
Wed 09:39:00 AM 22.6559 112.4856 308° West  Level Estimated
Wed 09:40:00 AM 22.7098 112.4110 308° West  Level Estimated
Wed 09:40:18 AM 22.4792 113.7653 17° North 362 417 11,700  Level FlightAware ADS-B
Wed 09:41:10 AM 22.5633 113.7643 356° North 368 423 11,800 115 Climbing FlightAware ADS-B
Wed 09:43:00 AM 22.6517 113.6196 304° West  Level Estimated
Wed 09:44:00 AM 22.6999 113.5405 303° West  Level Estimated
Wed 09:45:00 AM 22.7481 113.4614 303° West  Level Estimated
Wed 09:46:00 AM 22.7962 113.3823 303° West  Level Estimated
Wed 09:47:00 AM 22.8442 113.3030 303° West  Level Estimated
Wed 09:48:00 AM 22.8923 113.2238 303° West  Level Estimated
Wed 09:49:00 AM 22.9403 113.1444 303° West  Level Estimated
Wed 09:50:00 AM 22.9882 113.0651 303° West  Level Estimated
Wed 09:51:00 AM 23.0361 112.9856 303° West  Level Estimated
Wed 09:52:00 AM 23.0840 112.9061 303° West  Level Estimated
Wed 09:53:00 AM 23.1318 112.8266 303° West  Level Estimated
Wed 09:54:00 AM 23.1796 112.7470 303° West  Level Estimated
Wed 09:55:00 AM 23.2274 112.6673 303° West  Level Estimated
Wed 09:56:00 AM 23.2751 112.5876 303° West  Level Estimated
Wed 09:57:00 AM 23.3228 112.5078 303° West  Level Estimated
Wed 09:58:00 AM 23.3704 112.4280 303° West  Level Estimated
Wed 09:59:00 AM 23.4180 112.3481 303° West  Level Estimated
Wed 10:00:00 AM 23.4656 112.2681 303° West  Level Estimated
Wed 10:01:00 AM 23.5131 112.1881 303° West  Level Estimated
Wed 10:02:00 AM 23.5606 112.1081 303° West  Level Estimated
Wed 10:03:00 AM 23.6080 112.0279 303° West  Level Estimated
Wed 10:04:00 AM 23.6554 111.9477 303° West  Level Estimated
Wed 10:05:00 AM 23.7027 111.8675 303° West  Level Estimated
Wed 10:06:00 AM 23.7500 111.7872 303° West  Level Estimated
Wed 10:07:00 AM 23.7973 111.7068 303° West  Level Estimated
Wed 10:08:00 AM 23.8445 111.6264 303° West  Level Estimated
Wed 10:09:00 AM 23.8917 111.5460 303° West  Level Estimated
Wed 10:10:00 AM 23.9389 111.4654 303° West  Level Estimated
Wed 10:11:00 AM 23.9860 111.3848 303° West  Level Estimated
Wed 10:12:00 AM 24.0330 111.3042 303° West  Level Estimated
Wed 10:13:00 AM 24.0800 111.2235 303° West  Level Estimated
Wed 10:14:00 AM 24.1270 111.1427 303° West  Level Estimated
Wed 10:15:00 AM 24.1739 111.0619 302° West  Level Estimated
Wed 10:16:00 AM 24.2208 110.9810 302° West  Level Estimated
Wed 10:17:00 AM 24.2677 110.9000 302° West  Level Estimated
Wed 10:18:00 AM 24.3145 110.8190 302° West  Level Estimated
Wed 10:19:00 AM 24.3612 110.7380 302° West  Level Estimated
Wed 10:20:00 AM 24.4079 110.6569 302° West  Level Estimated
Wed 10:21:00 AM 24.4546 110.5757 302° West  Level Estimated
Wed 10:22:00 AM 24.5012 110.4944 302° West  Level Estimated
Wed 10:23:00 AM 24.5478 110.4131 302° West  Level Estimated
Wed 10:24:00 AM 24.5944 110.3317 302° West  Level Estimated
Wed 10:25:00 AM 24.6409 110.2503 302° West  Level Estimated
Wed 10:26:00 AM 24.6873 110.1688 302° West  Level Estimated
Wed 10:27:00 AM 24.7337 110.0873 302° West  Level Estimated
Wed 10:28:00 AM 24.7801 110.0057 302° West  Level Estimated
Wed 10:29:00 AM 24.8264 109.9240 302° West  Level Estimated
Wed 10:30:00 AM 24.8727 109.8423 302° West  Level Estimated
Wed 10:31:00 AM 24.9189 109.7605 302° West  Level Estimated
Wed 10:32:00 AM 24.9651 109.6786 302° West  Level Estimated
Wed 10:33:00 AM 25.0113 109.5967 302° West  Level Estimated
Wed 10:34:00 AM 25.0574 109.5147 302° West  Level Estimated
Wed 10:35:00 AM 25.1034 109.4327 302° West  Level Estimated
Wed 10:36:00 AM 25.1494 109.3506 302° West  Level Estimated
Wed 10:37:00 AM 25.1954 109.2684 302° West  Level Estimated
Wed 10:38:00 AM 25.2413 109.1862 302° West  Level Estimated
Wed 10:39:00 AM 25.2872 109.1039 302° West  Level Estimated
Wed 10:40:00 AM 25.3330 109.0216 302° West  Level Estimated
Wed 10:41:00 AM 25.3788 108.9391 302° West  Level Estimated
Wed 10:42:00 AM 25.4245 108.8567 302° West  Level Estimated
Wed 10:43:00 AM 25.4702 108.7741 302° West  Level Estimated
Wed 10:44:00 AM 25.5158 108.6915 301° West  Level Estimated
Wed 10:45:00 AM 25.5614 108.6089 301° West  Level Estimated
Wed 10:46:00 AM 25.6070 108.5261 301° West  Level Estimated
Wed 10:47:00 AM 25.6525 108.4434 301° West  Level Estimated
Wed 10:48:00 AM 25.6980 108.3605 301° West  Level Estimated
Wed 10:49:00 AM 25.7434 108.2776 301° West  Level Estimated
Wed 10:50:00 AM 25.7887 108.1946 301° West  Level Estimated
Wed 10:51:00 AM 25.8340 108.1116 301° West  Level Estimated
Wed 10:52:00 AM 25.8793 108.0285 301° West  Level Estimated
Wed 10:53:00 AM 25.9245 107.9453 301° West  Level Estimated
Wed 10:54:00 AM 25.9697 107.8621 301° West  Level Estimated
Wed 10:55:00 AM 26.0148 107.7788 301° West  Level Estimated
Wed 10:56:00 AM 26.0599 107.6954 301° West  Level Estimated
Wed 10:57:00 AM 26.1049 107.6120 301° West  Level Estimated
Wed 10:58:00 AM 26.1499 107.5285 301° West  Level Estimated
Wed 10:59:00 AM 26.1948 107.4449 301° West  Level Estimated
Wed 11:00:00 AM 26.2397 107.3613 301° West  Level Estimated
Wed 11:01:00 AM 26.2846 107.2776 301° West  Level Estimated
Wed 11:02:00 AM 26.3293 107.1939 301° West  Level Estimated
Wed 11:03:00 AM 26.3741 107.1101 301° West  Level Estimated
Wed 11:04:00 AM 26.4188 107.0262 301° West  Level Estimated
Wed 11:05:00 AM 26.4634 106.9423 301° West  Level Estimated
Wed 11:06:00 AM 26.5080 106.8583 301° West  Level Estimated
Wed 11:07:00 AM 26.5385 106.8007 301° West  Level Estimated
Wed 11:08:00 AM 26.5385 106.8007 North  Level Estimated
Wed 11:09:00 AM 26.5385 106.8007 North  Level Estimated

Login

Don't have an account? Register now (free) for customized features, flight alerts, and more!